Time;durP1;ratioP1;P1;durP2;ratioP2;P2;SDS_P1;SDS_P2;PMS_P1;PMS_P2;Temp;Humidity;BMP_temperature;BMP_pressure;BME280_temperature;BME280_humidity;BME280_pressure;Samples;Min_cycle;Max_cycle;Signal;HPM_P1;HPM_P2
2022/06/15 00:02:08;;;;;;;3.37;2.07;;;13.90;99.90;;;;;;5028044;28;20211;-69
2022/06/15 00:04:36;;;;;;;4.33;2.07;;;13.90;99.90;;;;;;5018083;28;20230;-69
2022/06/15 00:07:04;;;;;;;2.30;2.10;;;13.90;99.90;;;;;;5028167;28;20209;-70
2022/06/15 00:09:31;;;;;;;3.67;2.20;;;13.80;99.90;;;;;;5029845;28;20222;-70
2022/06/15 00:11:58;;;;;;;5.63;2.83;;;13.80;99.90;;;;;;5023648;28;20214;-69
2022/06/15 00:14:27;;;;;;;4.57;2.53;;;13.80;99.90;;;;;;5024795;28;20235;-69
2022/06/15 00:16:54;;;;;;;5.53;2.23;;;13.70;99.90;;;;;;5032064;28;20656;-69
2022/06/15 00:19:22;;;;;;;3.23;2.07;;;13.70;99.90;;;;;;5017396;28;20216;-70
2022/06/15 00:21:50;;;;;;;3.47;2.30;;;13.70;99.90;;;;;;5027747;28;20203;-69
2022/06/15 00:24:17;;;;;;;4.63;2.60;;;13.70;99.90;;;;;;5023957;28;20266;-70
2022/06/15 00:26:44;;;;;;;3.93;2.27;;;13.60;99.90;;;;;;5024257;28;20211;-69
2022/06/15 00:29:11;;;;;;;2.73;2.17;;;13.60;99.90;;;;;;5025566;28;20243;-70
2022/06/15 00:31:38;;;;;;;2.60;1.80;;;13.60;99.90;;;;;;5025327;28;20207;-71
2022/06/15 00:34:05;;;;;;;3.30;2.40;;;13.60;99.90;;;;;;5025137;28;20203;-70
2022/06/15 00:36:32;;;;;;;3.60;2.07;;;13.60;99.90;;;;;;5016605;28;20207;-69
2022/06/15 00:39:02;;;;;;;3.63;2.10;;;13.60;99.90;;;;;;5033753;28;20206;-70
2022/06/15 00:41:32;;;;;;;4.07;2.03;;;13.60;99.90;;;;;;5023368;28;20207;-70
2022/06/15 00:44:01;;;;;;;2.50;1.80;;;13.60;99.90;;;;;;5026436;28;20217;-70
2022/06/15 00:46:32;;;;;;;3.77;2.00;;;13.60;99.90;;;;;;5022870;28;20212;-69
2022/06/15 00:49:08;;;;;;;4.70;2.23;;;13.60;99.90;;;;;;5016664;28;20211;-69
2022/06/15 00:51:37;;;;;;;3.13;2.00;;;13.60;99.90;;;;;;5021820;28;20214;-69
2022/06/15 00:54:06;;;;;;;6.97;2.50;;;13.60;99.90;;;;;;5015408;28;20203;-69
2022/06/15 00:56:34;;;;;;;4.67;2.30;;;13.70;99.90;;;;;;5024612;28;20313;-70
2022/06/15 00:59:07;;;;;;;3.10;2.03;;;13.70;99.90;;;;;;5033492;28;20314;-69
2022/06/15 01:01:34;;;;;;;4.87;2.57;;;13.80;99.90;;;;;;5013080;28;20206;-70
2022/06/15 01:04:03;;;;;;;6.70;2.80;;;13.70;99.90;;;;;;5023030;28;20601;-70
2022/06/15 01:06:38;;;;;;;4.03;2.30;;;13.70;99.90;;;;;;5030113;28;20217;-71
2022/06/15 01:09:13;;;;;;;4.47;2.20;;;13.60;99.90;;;;;;5032496;28;20199;-70
2022/06/15 01:11:56;;;;;;;6.83;2.90;;;13.60;99.90;;;;;;5014663;28;20270;-70
2022/06/15 01:14:50;;;;;;;6.07;2.70;;;13.60;99.90;;;;;;5013833;28;20241;-71
2022/06/15 01:17:34;;;;;;;4.67;2.53;;;13.60;99.90;;;;;;5020147;28;20209;-70
2022/06/15 01:20:16;;;;;;;4.57;2.93;;;13.60;99.90;;;;;;5024532;28;20208;-70
2022/06/15 01:23:11;;;;;;;6.57;2.73;;;13.60;99.90;;;;;;5029296;28;20202;-71
2022/06/15 01:25:42;;;;;;;2.83;2.40;;;13.60;99.90;;;;;;5015870;28;20215;-71
2022/06/15 01:28:30;;;;;;;6.03;2.73;;;13.60;99.90;;;;;;5026328;28;20210;-70
2022/06/15 01:31:06;;;;;;;3.53;2.50;;;13.50;99.90;;;;;;5022850;28;20210;-70
2022/06/15 01:33:40;;;;;;;8.83;2.53;;;13.50;99.90;;;;;;5027615;28;20271;-70
2022/06/15 01:36:14;;;;;;;3.27;2.27;;;13.50;99.90;;;;;;5022377;28;20207;-71
2022/06/15 01:38:48;;;;;;;4.07;2.53;;;13.40;99.90;;;;;;5018296;28;20202;-71
2022/06/15 01:41:22;;;;;;;4.33;2.83;;;13.40;99.90;;;;;;5015343;28;20261;-70
2022/06/15 01:43:53;;;;;;;6.63;2.97;;;13.40;99.90;;;;;;5023014;28;20559;-70
2022/06/15 01:46:22;;;;;;;7.20;3.57;;;13.30;99.90;;;;;;5014262;28;20275;-70
2022/06/15 01:48:52;;;;;;;7.10;3.40;;;13.30;99.90;;;;;;5028263;28;20290;-70
2022/06/15 01:51:23;;;;;;;8.30;3.40;;;13.30;99.90;;;;;;5021052;28;20246;-69
2022/06/15 01:53:56;;;;;;;5.47;3.17;;;13.30;99.90;;;;;;5023272;28;20227;-70
2022/06/15 01:56:25;;;;;;;3.37;2.53;;;13.20;99.90;;;;;;5027003;28;20210;-70
2022/06/15 01:58:57;;;;;;;4.23;2.77;;;13.20;99.90;;;;;;5019618;28;20218;-70
2022/06/15 02:01:33;;;;;;;4.93;2.70;;;13.10;99.90;;;;;;5030465;28;20203;-69
2022/06/15 02:04:05;;;;;;;9.17;3.20;;;13.10;99.90;;;;;;5014469;28;20237;-70
2022/06/15 02:06:40;;;;;;;5.03;3.20;;;13.10;99.90;;;;;;5028364;28;20655;-70
2022/06/15 02:09:13;;;;;;;6.33;3.03;;;13.10;99.90;;;;;;5016884;28;20211;-71
2022/06/15 02:11:43;;;;;;;6.13;2.73;;;13.10;99.90;;;;;;5017178;28;20210;-70
2022/06/15 02:14:17;;;;;;;4.73;2.87;;;13.10;99.90;;;;;;5024312;28;20203;-70
2022/06/15 02:16:51;;;;;;;5.43;3.03;;;13.10;99.90;;;;;;5028519;28;20202;-70
2022/06/15 02:19:22;;;;;;;8.03;3.20;;;13.00;99.90;;;;;;5017921;28;20714;-70
2022/06/15 02:21:53;;;;;;;5.47;2.93;;;13.00;99.90;;;;;;5030733;28;20333;-70
2022/06/15 02:24:23;;;;;;;5.17;3.27;;;13.00;99.90;;;;;;5035133;28;20620;-69
2022/06/15 02:26:50;;;;;;;8.00;3.30;;;13.00;99.90;;;;;;5023774;28;20619;-70
2022/06/15 02:29:21;;;;;;;7.30;3.60;;;13.00;99.90;;;;;;5028803;28;20238;-70
2022/06/15 02:31:49;;;;;;;5.27;3.10;;;13.00;99.90;;;;;;5029702;28;20209;-69
2022/06/15 02:34:16;;;;;;;6.00;3.43;;;13.00;99.90;;;;;;5015564;28;20215;-71
2022/06/15 02:36:43;;;;;;;7.13;3.40;;;13.00;99.90;;;;;;5016961;28;20233;-70
2022/06/15 02:39:11;;;;;;;5.47;3.53;;;13.00;99.90;;;;;;5020526;28;20219;-70
2022/06/15 02:41:38;;;;;;;6.20;2.90;;;13.00;99.90;;;;;;5023824;28;20211;-70
2022/06/15 02:44:07;;;;;;;6.83;3.03;;;13.00;99.90;;;;;;5026764;28;20251;-70
2022/06/15 02:46:44;;;;;;;5.30;2.97;;;13.00;99.90;;;;;;5023938;28;20203;-70
2022/06/15 02:49:13;;;;;;;6.10;3.07;;;13.10;99.90;;;;;;5023147;28;20649;-70
2022/06/15 02:51:45;;;;;;;6.40;3.27;;;13.10;99.90;;;;;;5016097;28;20214;-71
2022/06/15 02:54:19;;;;;;;7.47;3.23;;;13.10;99.90;;;;;;5033093;28;20195;-70
2022/06/15 02:56:46;;;;;;;6.23;3.27;;;13.20;99.90;;;;;;5026276;28;20199;-70
2022/06/15 02:59:13;;;;;;;4.47;2.70;;;13.20;99.90;;;;;;5017686;28;20656;-70
2022/06/15 03:01:40;;;;;;;4.93;3.10;;;13.20;99.90;;;;;;5020520;28;20214;-70
2022/06/15 03:04:07;;;;;;;5.33;2.70;;;13.30;99.90;;;;;;5029267;28;20217;-70
2022/06/15 03:06:35;;;;;;;6.00;3.00;;;13.30;99.90;;;;;;5022819;28;20219;-70
2022/06/15 03:09:02;;;;;;;7.77;3.07;;;13.30;99.90;;;;;;5029623;28;20222;-70
2022/06/15 03:11:29;;;;;;;6.57;3.30;;;13.40;99.90;;;;;;5032285;28;20211;-70
2022/06/15 03:13:56;;;;;;;8.37;3.23;;;13.40;99.90;;;;;;5020263;28;20211;-70
2022/06/15 03:16:23;;;;;;;4.13;2.40;;;13.50;99.90;;;;;;5018357;28;20278;-70
2022/06/15 03:18:50;;;;;;;7.57;3.33;;;13.50;99.90;;;;;;5022918;28;20656;-70
2022/06/15 03:21:17;;;;;;;5.10;3.13;;;13.60;99.90;;;;;;5016175;28;20222;-70
2022/06/15 03:23:45;;;;;;;3.33;2.80;;;13.70;99.90;;;;;;5020031;28;20210;-70
2022/06/15 03:26:12;;;;;;;7.70;3.40;;;13.70;99.90;;;;;;5025246;28;20223;-70
2022/06/15 03:28:39;;;;;;;4.27;3.10;;;13.80;99.90;;;;;;5017405;28;20226;-72
2022/06/15 03:31:06;;;;;;;6.10;2.80;;;13.90;99.90;;;;;;5026892;28;20230;-70
2022/06/15 03:33:34;;;;;;;5.67;3.17;;;14.00;99.90;;;;;;5016577;28;20211;-70
2022/06/15 03:36:00;;;;;;;5.07;3.20;;;14.10;99.90;;;;;;5027063;28;20207;-70
2022/06/15 03:38:28;;;;;;;5.83;2.80;;;14.10;99.90;;;;;;5022671;28;20695;-70
2022/06/15 03:40:56;;;;;;;4.03;2.80;;;14.20;99.90;;;;;;5019050;28;20212;-70
2022/06/15 03:43:23;;;;;;;4.03;2.40;;;14.20;99.90;;;;;;5020070;28;20584;-70
2022/06/15 03:45:50;;;;;;;6.07;3.27;;;14.30;99.90;;;;;;5032651;28;20236;-69
2022/06/15 03:48:17;;;;;;;6.03;3.00;;;14.30;99.90;;;;;;5020005;28;20207;-71
2022/06/15 03:50:45;;;;;;;3.00;2.57;;;14.30;99.90;;;;;;5018484;28;20211;-70
2022/06/15 03:53:12;;;;;;;8.37;4.10;;;14.30;99.90;;;;;;5023499;28;20226;-71
2022/06/15 03:55:41;;;;;;;6.00;3.30;;;14.30;99.90;;;;;;5021290;28;20203;-70
2022/06/15 03:58:12;;;;;;;5.73;3.33;;;14.30;99.90;;;;;;5026369;28;20218;-70
2022/06/15 04:00:39;;;;;;;6.23;3.47;;;14.40;99.90;;;;;;5016209;28;20657;-70
2022/06/15 04:03:06;;;;;;;5.60;3.63;;;14.40;99.90;;;;;;5023979;28;20206;-70
2022/06/15 04:05:36;;;;;;;5.07;3.27;;;14.40;99.90;;;;;;5023467;28;20225;-70
2022/06/15 04:10:47;;;;;;;4.73;3.10;;;14.30;99.90;;;;;;5018457;28;20666;-69
2022/06/15 04:13:15;;;;;;;5.63;3.40;;;14.30;99.90;;;;;;5021031;28;20210;-70
2022/06/15 04:15:43;;;;;;;6.57;3.57;;;14.30;99.90;;;;;;5025609;28;20238;-70
2022/06/15 04:18:10;;;;;;;5.97;3.30;;;14.20;99.90;;;;;;5019055;28;20222;-70
2022/06/15 04:20:37;;;;;;;7.87;3.73;;;14.30;99.90;;;;;;5025912;28;20198;-70
2022/06/15 04:23:07;;;;;;;6.07;3.10;;;14.30;99.90;;;;;;5032268;28;20576;-70
2022/06/15 04:25:37;;;;;;;4.57;3.03;;;14.30;99.90;;;;;;5016146;28;20226;-70
2022/06/15 04:28:05;;;;;;;5.57;3.20;;;14.40;99.90;;;;;;5019776;28;20226;-70
2022/06/15 04:30:33;;;;;;;5.97;3.47;;;14.40;99.90;;;;;;5030060;28;20233;-70
2022/06/15 04:33:00;;;;;;;13.30;3.50;;;14.50;99.90;;;;;;5029509;28;20620;-70
2022/06/15 04:35:27;;;;;;;6.80;3.60;;;14.50;99.90;;;;;;5028821;28;20210;-71
2022/06/15 04:37:54;;;;;;;7.03;3.43;;;14.60;99.90;;;;;;5019539;28;20215;-70
2022/06/15 04:40:21;;;;;;;4.80;3.07;;;14.60;99.90;;;;;;5018708;28;20203;-70
2022/06/15 04:42:48;;;;;;;4.03;3.03;;;14.70;99.90;;;;;;5030102;28;20211;-70
2022/06/15 04:45:16;;;;;;;5.40;2.83;;;14.70;99.90;;;;;;5016089;28;20273;-71
2022/06/15 04:47:45;;;;;;;7.60;3.20;;;14.70;99.90;;;;;;5023316;28;20204;-71
2022/06/15 04:50:13;;;;;;;5.20;3.20;;;14.80;99.90;;;;;;5017572;28;20208;-70
2022/06/15 04:52:41;;;;;;;6.73;3.43;;;14.90;99.90;;;;;;5025498;28;20230;-70
2022/06/15 04:55:09;;;;;;;4.47;2.80;;;14.90;99.90;;;;;;5027089;28;20202;-70
2022/06/15 04:57:36;;;;;;;9.37;3.33;;;15.00;99.90;;;;;;5026489;28;20230;-70
2022/06/15 05:00:05;;;;;;;7.17;3.50;;;15.00;99.90;;;;;;5022657;28;20207;-70
2022/06/15 05:02:32;;;;;;;4.97;2.60;;;15.00;99.90;;;;;;5020143;28;20632;-70
2022/06/15 05:05:00;;;;;;;5.93;2.90;;;15.00;99.90;;;;;;5026295;28;20229;-70
2022/06/15 05:07:27;;;;;;;8.63;3.90;;;15.10;99.90;;;;;;5022321;28;20215;-70
2022/06/15 05:09:54;;;;;;;3.17;2.63;;;15.00;99.90;;;;;;5026248;28;20212;-70
2022/06/15 05:12:21;;;;;;;8.07;2.90;;;15.10;99.90;;;;;;5020965;28;20221;-71
2022/06/15 05:14:48;;;;;;;4.63;2.83;;;15.20;99.90;;;;;;5016591;28;20244;-71
2022/06/15 05:17:15;;;;;;;4.33;2.90;;;15.30;99.90;;;;;;5015552;28;20219;-71
2022/06/15 05:19:42;;;;;;;5.03;2.73;;;15.30;99.90;;;;;;5020820;28;20204;-70
2022/06/15 05:22:10;;;;;;;5.70;2.67;;;15.30;99.90;;;;;;5018695;28;20214;-70
2022/06/15 05:24:38;;;;;;;4.97;2.70;;;15.30;99.90;;;;;;5019515;28;20660;-70
2022/06/15 05:27:06;;;;;;;6.87;3.10;;;15.30;99.90;;;;;;5015938;28;20218;-70
2022/06/15 05:29:36;;;;;;;4.47;2.87;;;15.40;99.90;;;;;;5012983;28;20228;-70
2022/06/15 05:32:04;;;;;;;6.50;3.33;;;15.50;99.90;;;;;;5016527;28;20234;-71
2022/06/15 05:34:31;;;;;;;5.70;3.80;;;15.50;99.90;;;;;;5030808;28;20245;-71
2022/06/15 05:36:57;;;;;;;6.90;3.40;;;15.50;99.90;;;;;;5020549;28;20194;-69
2022/06/15 05:39:25;;;;;;;4.33;2.80;;;15.50;99.90;;;;;;5017095;28;20203;-71
2022/06/15 05:41:52;;;;;;;7.33;3.57;;;15.60;99.90;;;;;;5023232;28;20211;-70
2022/06/15 05:44:23;;;;;;;9.63;5.80;;;15.70;99.90;;;;;;5029043;28;20206;-71
2022/06/15 05:46:55;;;;;;;6.33;3.43;;;15.70;99.90;;;;;;5025912;28;20333;-70
2022/06/15 05:49:21;;;;;;;8.77;3.40;;;15.80;99.90;;;;;;5015615;28;20656;-70
2022/06/15 05:51:48;;;;;;;6.73;2.87;;;15.80;99.90;;;;;;5013454;28;20237;-71
2022/06/15 05:54:15;;;;;;;5.13;2.93;;;15.80;99.90;;;;;;5017658;28;20203;-70
2022/06/15 05:56:43;;;;;;;5.00;2.63;;;15.90;99.90;;;;;;5025866;28;20206;-71
2022/06/15 05:59:10;;;;;;;4.93;2.47;;;16.00;99.90;;;;;;5018831;28;20589;-72
2022/06/15 06:01:38;;;;;;;5.90;2.73;;;16.00;99.90;;;;;;5023364;28;20330;-71
2022/06/15 06:04:06;;;;;;;6.20;2.97;;;16.10;99.90;;;;;;5025193;28;20230;-70
2022/06/15 06:06:33;;;;;;;6.83;3.20;;;16.10;99.90;;;;;;5026256;28;20227;-71
2022/06/15 06:09:01;;;;;;;5.60;3.00;;;16.10;99.90;;;;;;5027633;28;20206;-70
2022/06/15 06:11:28;;;;;;;4.50;3.07;;;16.20;99.90;;;;;;5015828;28;20210;-70
2022/06/15 06:13:56;;;;;;;5.10;2.70;;;16.20;99.90;;;;;;5016425;28;20211;-71
2022/06/15 06:16:23;;;;;;;6.70;3.10;;;16.30;99.90;;;;;;5018381;28;20214;-71
2022/06/15 06:18:51;;;;;;;5.67;3.50;;;16.40;99.90;;;;;;5025760;28;20199;-70
2022/06/15 06:21:18;;;;;;;5.47;3.00;;;16.40;99.90;;;;;;5020294;28;20215;-73
2022/06/15 06:23:46;;;;;;;5.10;3.30;;;16.50;99.90;;;;;;5016481;28;20204;-73
2022/06/15 06:26:19;;;;;;;4.13;2.40;;;16.60;99.90;;;;;;5017721;28;20700;-73
2022/06/15 06:28:46;;;;;;;7.23;3.03;;;16.60;99.90;;;;;;5020707;28;20231;-73
2022/06/15 06:31:15;;;;;;;4.07;2.43;;;16.70;99.90;;;;;;5020798;28;20218;-73
2022/06/15 06:33:41;;;;;;;4.83;2.20;;;16.70;99.90;;;;;;5015919;28;20626;-73
2022/06/15 06:36:16;;;;;;;4.67;2.23;;;16.60;99.90;;;;;;5020440;28;20207;-72
2022/06/15 06:38:42;;;;;;;3.73;2.27;;;16.80;99.90;;;;;;5015708;28;20578;-70
2022/06/15 06:41:11;;;;;;;5.13;2.90;;;16.80;99.90;;;;;;5018422;28;20211;-70
2022/06/15 06:43:37;;;;;;;3.73;2.30;;;16.80;99.90;;;;;;5020702;28;20211;-71
2022/06/15 06:46:05;;;;;;;3.67;1.87;;;16.90;99.90;;;;;;5019614;28;20234;-69
2022/06/15 06:48:33;;;;;;;5.30;1.90;;;17.00;99.90;;;;;;5022505;28;20239;-70
2022/06/15 06:51:00;;;;;;;4.57;1.80;;;17.10;99.90;;;;;;5016030;28;20593;-70
2022/06/15 06:53:27;;;;;;;4.17;1.80;;;17.20;99.90;;;;;;5021163;28;20203;-70
2022/06/15 06:55:54;;;;;;;6.97;2.30;;;17.20;99.90;;;;;;5019381;28;20214;-71
2022/06/15 06:58:20;;;;;;;6.83;1.77;;;17.20;99.90;;;;;;5015451;28;20207;-70
2022/06/15 07:00:50;;;;;;;4.77;2.10;;;17.20;99.90;;;;;;5022381;28;20203;-71
2022/06/15 07:03:17;;;;;;;2.47;1.67;;;17.20;99.90;;;;;;5017280;28;20234;-71
2022/06/15 07:05:45;;;;;;;3.70;1.70;;;17.30;99.90;;;;;;5015161;28;20235;-71
2022/06/15 07:08:13;;;;;;;5.57;1.77;;;17.40;99.90;;;;;;5018864;28;20571;-71
2022/06/15 07:10:40;;;;;;;3.87;1.77;;;17.60;99.90;;;;;;5019121;28;20303;-71
2022/06/15 07:13:07;;;;;;;2.53;1.53;;;17.70;99.90;;;;;;5016551;28;20822;-71
2022/06/15 07:15:34;;;;;;;2.90;1.70;;;17.70;99.90;;;;;;5019120;28;20243;-71
2022/06/15 07:18:02;;;;;;;3.27;2.10;;;17.80;99.90;;;;;;5024623;28;20207;-71
2022/06/15 07:20:32;;;;;;;4.67;1.90;;;17.90;99.90;;;;;;5035467;28;20202;-71
2022/06/15 07:23:00;;;;;;;3.47;1.60;;;17.90;99.90;;;;;;5022161;28;20223;-71
2022/06/15 07:25:27;;;;;;;2.60;1.27;;;17.90;99.90;;;;;;5026093;28;20722;-70
2022/06/15 07:27:54;;;;;;;3.55;1.67;;;17.90;99.90;;;;;;5022040;28;20564;-70
2022/06/15 07:30:23;;;;;;;3.50;2.20;;;18.00;99.90;;;;;;5030181;28;20695;-71
2022/06/15 07:32:50;;;;;;;5.13;2.00;;;18.00;99.90;;;;;;5023019;28;20219;-72
2022/06/15 07:35:21;;;;;;;5.15;1.70;;;18.10;99.90;;;;;;5029912;28;20644;-72
2022/06/15 07:37:48;;;;;;;2.83;1.37;;;18.10;99.90;;;;;;5018357;28;20199;-73
2022/06/15 07:40:16;;;;;;;6.57;1.73;;;18.20;99.90;;;;;;5020987;28;20314;-71
2022/06/15 07:42:45;;;;;;;3.70;1.42;;;18.40;99.90;;;;;;5028186;28;20206;-71
2022/06/15 07:45:13;;;;;;;4.90;1.80;;;18.60;99.90;;;;;;5030789;28;20325;-75
2022/06/15 07:50:25;;;;;;;3.42;1.65;;;18.90;99.90;;;;;;5020154;28;20206;-71
2022/06/15 07:52:53;;;;;;;5.33;1.60;;;19.00;99.90;;;;;;5018093;28;20208;-72
2022/06/15 07:55:24;;;;;;;4.05;1.42;;;19.10;99.90;;;;;;5014797;28;20218;-73
2022/06/15 07:57:52;;;;;;;2.33;1.13;;;19.20;99.90;;;;;;5017345;28;20240;-71
2022/06/15 08:00:21;;;;;;;2.42;1.60;;;19.20;99.90;;;;;;5017697;28;20580;-70
2022/06/15 08:02:48;;;;;;;4.03;2.00;;;19.20;99.90;;;;;;5021547;28;20203;-72
2022/06/15 08:05:15;;;;;;;3.67;1.92;;;19.30;99.90;;;;;;5027628;28;20270;-71
2022/06/15 08:07:44;;;;;;;4.32;1.70;;;19.40;99.90;;;;;;5020870;28;20221;-71
2022/06/15 08:10:12;;;;;;;5.37;1.77;;;19.40;99.90;;;;;;5018576;28;20297;-71
2022/06/15 08:12:41;;;;;;;5.53;1.83;;;19.40;99.90;;;;;;5011594;28;20818;-71
2022/06/15 08:15:09;;;;;;;4.20;1.80;;;19.50;99.90;;;;;;5013028;28;20261;-70
2022/06/15 08:17:40;;;;;;;5.07;1.70;;;19.50;99.90;;;;;;5019693;28;20249;-69
2022/06/15 08:20:11;;;;;;;2.10;1.30;;;19.50;99.90;;;;;;5024986;28;20203;-70
2022/06/15 08:22:41;;;;;;;3.70;1.70;;;19.60;99.90;;;;;;5016202;28;20221;-69
2022/06/15 08:25:11;;;;;;;4.20;2.50;;;19.80;99.90;;;;;;5017245;28;20242;-70
2022/06/15 08:27:40;;;;;;;2.90;1.48;;;19.90;99.90;;;;;;5014302;28;20654;-70
2022/06/15 08:30:10;;;;;;;3.38;1.40;;;20.00;99.90;;;;;;5017904;28;20230;-69
2022/06/15 08:32:37;;;;;;;1.23;1.00;;;20.20;99.90;;;;;;5016637;28;20207;-70
2022/06/15 08:35:05;;;;;;;4.75;1.23;;;20.30;99.90;;;;;;5013997;28;20215;-70
2022/06/15 08:37:33;;;;;;;2.38;1.25;;;20.40;99.90;;;;;;5029771;28;20521;-70
2022/06/15 08:40:00;;;;;;;2.20;1.23;;;20.60;99.80;;;;;;5022239;28;20560;-73
2022/06/15 08:42:41;;;;;;;3.25;1.50;;;20.70;99.00;;;;;;5020646;28;20203;-70
2022/06/15 08:45:17;;;;;;;2.17;1.20;;;20.70;98.90;;;;;;5013643;28;20206;-69
2022/06/15 08:48:02;;;;;;;3.65;1.33;;;20.70;99.30;;;;;;5015462;28;20222;-71
2022/06/15 08:50:34;;;;;;;2.30;1.40;;;20.90;99.20;;;;;;5016924;28;20199;-70
2022/06/15 08:53:10;;;;;;;2.63;1.27;;;21.20;98.50;;;;;;5014311;28;20199;-69
2022/06/15 08:55:43;;;;;;;3.05;1.80;;;21.50;98.00;;;;;;5014444;28;20199;-70
2022/06/15 08:58:15;;;;;;;1.50;1.40;;;21.70;97.00;;;;;;5013293;28;20207;-70
2022/06/15 09:00:45;;;;;;;1.65;1.17;;;21.80;95.50;;;;;;5012881;28;20209;-71
2022/06/15 09:03:21;;;;;;;1.63;1.20;;;21.90;94.60;;;;;;5019009;28;20238;-70
2022/06/15 09:05:56;;;;;;;4.40;1.35;;;21.90;94.30;;;;;;5014684;28;20324;-70
2022/06/15 09:08:56;;;;;;;3.22;1.35;;;21.90;94.50;;;;;;5014263;28;20219;-71
2022/06/15 09:11:32;;;;;;;3.05;1.80;;;21.80;94.80;;;;;;5013150;28;20210;-70
2022/06/15 09:14:12;;;;;;;2.80;1.00;;;21.80;94.90;;;;;;5022694;28;20221;-71
2022/06/15 09:16:47;;;;;;;2.85;1.27;;;21.70;95.10;;;;;;5012954;28;20208;-71
2022/06/15 09:19:19;;;;;;;4.18;1.40;;;21.70;95.30;;;;;;5015268;28;20721;-71
2022/06/15 09:21:50;;;;;;;3.58;1.60;;;21.70;95.10;;;;;;5015531;28;20198;-71
2022/06/15 09:24:22;;;;;;;2.85;1.23;;;21.60;94.30;;;;;;5022789;28;20203;-71
2022/06/15 09:26:52;;;;;;;2.55;1.30;;;21.50;94.30;;;;;;5021632;28;20229;-71
2022/06/15 09:29:22;;;;;;;1.90;1.23;;;21.60;94.50;;;;;;5015824;28;20237;-70
2022/06/15 09:31:56;;;;;;;3.05;1.45;;;21.60;94.60;;;;;;5023107;28;20207;-72
2022/06/15 09:34:26;;;;;;;2.38;1.35;;;21.70;94.50;;;;;;5035015;28;20206;-70
2022/06/15 09:36:56;;;;;;;3.13;1.27;;;21.90;94.30;;;;;;5022595;28;20694;-70
2022/06/15 09:39:24;;;;;;;2.60;1.17;;;22.20;94.10;;;;;;5026678;28;20219;-71
2022/06/15 09:42:01;;;;;;;2.65;1.10;;;22.40;93.60;;;;;;5020670;28;20222;-70
2022/06/15 09:44:41;;;;;;;1.70;1.20;;;22.60;93.40;;;;;;5032668;28;20581;-71
2022/06/15 09:47:20;;;;;;;2.63;1.23;;;22.90;92.70;;;;;;5020534;28;20322;-71
2022/06/15 09:50:00;;;;;;;2.75;1.23;;;23.10;91.40;;;;;;5020217;28;20206;-71
2022/06/15 09:52:39;;;;;;;2.55;1.10;;;23.10;90.60;;;;;;5024925;28;20199;-71
2022/06/15 09:55:11;;;;;;;1.35;0.90;;;23.20;89.40;;;;;;5024219;28;20292;-71
2022/06/15 09:57:39;;;;;;;2.60;1.45;;;23.10;86.90;;;;;;5015909;28;20226;-71
2022/06/15 10:00:10;;;;;;;2.35;1.20;;;23.20;87.40;;;;;;5022520;28;20215;-71
2022/06/15 10:02:40;;;;;;;2.05;0.90;;;23.50;86.80;;;;;;5019529;28;20210;-71
2022/06/15 10:05:20;;;;;;;2.30;1.35;;;23.90;85.60;;;;;;5024654;28;20206;-71
2022/06/15 10:07:47;;;;;;;2.42;1.00;;;24.10;83.40;;;;;;5029372;28;20706;-70
2022/06/15 10:10:21;;;;;;;2.03;1.13;;;24.20;83.60;;;;;;5021314;28;20218;-70
2022/06/15 10:12:57;;;;;;;2.03;1.48;;;24.30;83.60;;;;;;5025863;28;20198;-70
2022/06/15 10:15:31;;;;;;;3.00;1.20;;;24.40;83.30;;;;;;5022502;28;20242;-72
2022/06/15 10:18:13;;;;;;;1.60;0.98;;;24.30;82.80;;;;;;5023022;28;20214;-73
2022/06/15 10:20:41;;;;;;;4.57;1.30;;;24.10;82.00;;;;;;5017896;28;20214;-73
2022/06/15 10:23:18;;;;;;;2.72;1.27;;;23.90;82.20;;;;;;5022732;28;20203;-72
2022/06/15 10:25:52;;;;;;;2.13;1.40;;;23.80;82.90;;;;;;5022899;28;20571;-72
2022/06/15 10:28:25;;;;;;;1.42;1.25;;;23.80;82.60;;;;;;5016906;28;20250;-72
2022/06/15 10:30:56;;;;;;;1.60;1.10;;;23.80;81.60;;;;;;5016789;28;20207;-72
2022/06/15 10:33:27;;;;;;;1.92;1.17;;;23.90;81.30;;;;;;5021979;28;20222;-74
2022/06/15 10:35:57;;;;;;;5.03;1.10;;;24.10;81.50;;;;;;5025952;28;20207;-72
2022/06/15 10:38:25;;;;;;;2.67;1.17;;;24.30;81.90;;;;;;5014130;28;20268;-74
2022/06/15 10:41:45;;;;;;;4.78;1.52;;;24.50;80.70;;;;;;5015949;28;20702;-73
2022/06/15 10:43:49;;;;;;;2.45;1.10;;;24.60;79.90;;;;;;5018907;28;20199;-74
2022/06/15 10:46:17;;;;;;;2.35;1.10;;;24.60;78.70;;;;;;5015948;28;20199;-71
2022/06/15 10:48:48;;;;;;;1.80;1.25;;;24.50;77.40;;;;;;5014966;28;20212;-72
2022/06/15 10:51:29;;;;;;;1.73;0.90;;;24.40;78.00;;;;;;5029973;28;20687;-73
2022/06/15 10:54:19;;;;;;;3.13;1.10;;;24.30;77.40;;;;;;5016563;28;20211;-72
2022/06/15 11:02:25;;;;;;;2.75;1.10;;;24.10;77.30;;;;;;5015202;28;20717;-73
2022/06/15 11:04:58;;;;;;;1.20;1.02;;;23.80;76.70;;;;;;5016254;28;20211;-74
2022/06/15 11:07:39;;;;;;;3.05;0.98;;;23.60;74.80;;;;;;5023887;28;20719;-72
2022/06/15 11:10:20;;;;;;;1.83;0.93;;;23.20;74.10;;;;;;5015399;28;20210;-75
2022/06/15 11:12:49;;;;;;;5.22;1.33;;;22.80;74.90;;;;;;5015857;28;20682;-77
2022/06/15 11:18:22;;;;;;;2.38;1.17;;;22.10;81.00;;;;;;5016074;28;20211;-74
2022/06/15 11:20:56;;;;;;;3.00;1.23;;;21.80;83.20;;;;;;5028414;28;20209;-73
2022/06/15 11:23:28;;;;;;;3.30;1.40;;;21.50;84.60;;;;;;5030093;28;20233;-73
2022/06/15 11:26:00;;;;;;;2.33;1.20;;;21.40;85.80;;;;;;5021525;28;20211;-73
2022/06/15 11:28:31;;;;;;;2.92;1.20;;;21.20;86.50;;;;;;5016093;28;20656;-74
2022/06/15 11:31:02;;;;;;;1.95;1.40;;;21.10;87.40;;;;;;5029946;28;20760;-73
2022/06/15 11:33:38;;;;;;;2.40;1.25;;;21.00;87.90;;;;;;5026942;28;20214;-73
2022/06/15 11:36:17;;;;;;;5.75;1.90;;;21.00;88.10;;;;;;5014894;28;20221;-75
2022/06/15 11:38:51;;;;;;;1.70;1.33;;;21.10;88.60;;;;;;5020863;28;20253;-72
2022/06/15 11:41:23;;;;;;;3.03;1.58;;;21.30;89.70;;;;;;5019759;28;20213;-73
2022/06/15 11:43:52;;;;;;;4.40;1.40;;;21.60;90.30;;;;;;5014573;28;20230;-74
2022/06/15 11:46:35;;;;;;;1.83;1.23;;;22.00;89.50;;;;;;5021022;28;20286;-74
2022/06/15 11:49:11;;;;;;;4.03;1.90;;;22.30;87.80;;;;;;5022716;28;20619;-72
2022/06/15 11:51:54;;;;;;;5.45;1.65;;;22.60;88.10;;;;;;5028202;28;20547;-73
2022/06/15 11:54:35;;;;;;;5.78;2.47;;;22.80;87.80;;;;;;5015410;28;20211;-74
2022/06/15 11:57:14;;;;;;;3.83;1.23;;;23.10;86.20;;;;;;5019740;28;20207;-72
2022/06/15 11:59:47;;;;;;;2.05;1.40;;;23.30;84.30;;;;;;5022617;28;20568;-73
2022/06/15 12:02:24;;;;;;;4.93;1.50;;;23.40;83.80;;;;;;5030216;28;20202;-72
2022/06/15 12:05:21;;;;;;;2.40;1.25;;;23.70;82.80;;;;;;5025610;28;20206;-70
2022/06/15 12:08:02;;;;;;;3.33;1.30;;;24.00;82.70;;;;;;5016241;28;20227;-72
2022/06/15 12:10:38;;;;;;;2.78;1.35;;;24.30;82.10;;;;;;5014748;28;20208;-73
2022/06/15 12:13:12;;;;;;;3.35;1.20;;;24.50;80.80;;;;;;5024075;28;20212;-73
2022/06/15 12:15:45;;;;;;;4.55;1.15;;;24.50;78.80;;;;;;5020173;28;20600;-73
2022/06/15 12:18:31;;;;;;;3.67;1.30;;;24.30;78.30;;;;;;5019947;28;20227;-73
2022/06/15 12:21:05;;;;;;;2.70;1.40;;;24.10;78.80;;;;;;5025232;28;20206;-73
2022/06/15 12:23:42;;;;;;;2.13;1.27;;;23.90;78.20;;;;;;5020581;28;20210;-73
2022/06/15 12:26:22;;;;;;;1.88;1.00;;;23.70;78.90;;;;;;5019996;28;20295;-73
2022/06/15 12:28:58;;;;;;;4.63;1.30;;;23.60;80.10;;;;;;5023033;28;20238;-74
2022/06/15 12:31:34;;;;;;;2.28;1.25;;;23.50;80.50;;;;;;5023561;28;20199;-73
2022/06/15 12:34:07;;;;;;;3.00;1.20;;;23.30;81.00;;;;;;5019600;28;20229;-73
2022/06/15 12:36:41;;;;;;;4.82;2.75;;;23.10;81.60;;;;;;5018906;28;20206;-74
2022/06/15 12:39:17;;;;;;;5.90;1.90;;;23.00;82.10;;;;;;5014233;28;20209;-73
2022/06/15 12:44:35;;;;;;;1.90;1.13;;;23.30;82.30;;;;;;5017920;28;20206;-73
2022/06/15 12:47:02;;;;;;;1.98;1.08;;;23.60;80.80;;;;;;5020326;28;20214;-72
2022/06/15 12:49:36;;;;;;;1.42;1.10;;;23.60;79.40;;;;;;5017329;28;20211;-73
2022/06/15 12:52:13;;;;;;;4.78;1.00;;;23.70;78.80;;;;;;5013802;28;20207;-72
2022/06/15 12:54:53;;;;;;;2.67;1.20;;;23.70;78.80;;;;;;5025220;28;20232;-72
2022/06/15 12:57:28;;;;;;;1.65;1.10;;;24.00;79.20;;;;;;5028539;28;20198;-72
2022/06/15 13:00:03;;;;;;;1.42;0.90;;;24.30;78.80;;;;;;5025422;28;20727;-72
2022/06/15 13:02:36;;;;;;;0.88;0.88;;;24.30;77.50;;;;;;5018859;28;20199;-73
2022/06/15 13:05:17;;;;;;;2.45;1.60;;;24.30;76.80;;;;;;5021727;28;20301;-72
2022/06/15 13:07:44;;;;;;;1.98;1.13;;;24.00;76.50;;;;;;5015694;28;20206;-72
2022/06/15 13:10:26;;;;;;;1.88;1.27;;;23.80;76.80;;;;;;5012343;28;20318;-73
2022/06/15 13:12:56;;;;;;;3.90;1.60;;;23.50;77.40;;;;;;5015387;28;20202;-73
2022/06/15 13:15:29;;;;;;;3.38;2.03;;;23.20;77.60;;;;;;5019212;28;20237;-73
2022/06/15 13:18:12;;;;;;;3.95;1.40;;;23.00;78.50;;;;;;5018039;28;20214;-73
2022/06/15 13:21:05;;;;;;;1.77;1.20;;;22.70;79.30;;;;;;5020996;28;20211;-73
2022/06/15 13:23:36;;;;;;;1.98;0.88;;;22.40;79.90;;;;;;5013989;28;20238;-74
2022/06/15 13:26:12;;;;;;;1.60;1.50;;;22.30;80.30;;;;;;5012151;28;20203;-73